This is the latest recevied weather packets stored in our database for station/object JH5HTX-13. If no packets are shown the sender has not sent any weather packets the latest 10 day(s).
| Time | Temp. | Humidity | Pressure | Rain* | Wind** | Luminosity | Snow |
|---|---|---|---|---|---|---|---|
| 1777352334 | 23.89° C | 67% | 1010.8 hPa | 0 mm | - | - | - |
| 1777351434 | 24.44° C | 65% | 1011.1 hPa | 0 mm | - | - | - |
| 1777350533 | 23.89° C | 64% | 1011.2 hPa | 0 mm | - | - | - |
| 1777349633 | 23.89° C | 67% | 1011.2 hPa | 0 mm | - | - | - |
| 1777348733 | 23.33° C | 69% | 1011.3 hPa | 0 mm | - | - | - |
| 1777347833 | 22.78° C | 70% | 1011.4 hPa | 0 mm | - | - | - |
| 1777346933 | 22.78° C | 70% | 1011.6 hPa | 0 mm | - | - | - |
| 1777346033 | 22.22° C | 71% | 1011.6 hPa | 0 mm | - | - | - |
| 1777345133 | 22.22° C | 72% | 1011.8 hPa | 0 mm | - | - | - |
| 1777343333 | 21.67° C | 73% | 1012 hPa | 0 mm | - | - | - |
| 1777342432 | 21.67° C | 73% | 1012.1 hPa | 0 mm | - | - | - |
| 1777341532 | 21.67° C | 74% | 1012 hPa | 0 mm | - | - | - |
| 1777340632 | 21.11° C | 75% | 1012 hPa | 0 mm | - | - | - |
| 1777339732 | 21.11° C | 77% | 1012.3 hPa | 0 mm | - | - | - |
| 1777338832 | 21.11° C | 78% | 1012.2 hPa | 0 mm | - | - | - |
| 1777337932 | 20.56° C | 79% | 1012.3 hPa | 0 mm | - | - | - |
| 1777337032 | 20° C | 80% | 1012.3 hPa | 0 mm | - | - | - |
| 1777336132 | 19.44° C | 82% | 1012.5 hPa | 0 mm | - | - | - |
| 1777310929 | 13.89° C | 93% | 1011.5 hPa | 0 mm | - | - | - |
| 1777309129 | 14.44° C | 92% | 1011.5 hPa | 0 mm | - | - | - |
| 1777302828 | 15.56° C | 90% | 1011.7 hPa | 0 mm | - | - | - |
| 1777301928 | 15.56° C | 89% | 1011.8 hPa | 0 mm | - | - | - |
| 1777300128 | 16.11° C | 89% | 1012 hPa | 0 mm | - | - | - |
| 1777299228 | 16.67° C | 88% | 1012 hPa | 0 mm | - | - | - |
| 1777298327 | 16.67° C | 88% | 1011.9 hPa | 0 mm | - | - | - |
* Rain latest hour (hover to see other rain measurements)
** Current wind speed in m/s (hover to see current wind gust speed)